Flight Track Log - Related Links

Times and Time Zones

All times are in EDT time to prevent confusion due to time zone crossing. See the CDG1157 flight status page for this flight to view local times or setup timezone preferences in your user account.

Time Position Orientation Groundspeed Altitude Reporting Facility
EDT Latitude Longitude Course Direction KTS MPH feet Rate Location/Type
Wed 11:36:00 PM 35.9319 117.3031 176° South  Level Estimated
Wed 11:37:00 PM 35.8394 117.3117 176° South  Level Estimated
Wed 11:38:00 PM 35.7554 117.3195 176° South  Level Estimated
Wed 11:39:00 PM 35.6714 117.3273 176° South  Level Estimated
Wed 11:40:00 PM 35.5874 117.3351 176° South  Level Estimated
Wed 11:41:00 PM 35.5034 117.3428 176° South  Level Estimated
Wed 11:42:00 PM 35.4195 117.3505 176° South  Level Estimated
Wed 11:43:00 PM 35.3355 117.3582 176° South  Level Estimated
Wed 11:44:00 PM 35.2515 117.3659 176° South  Level Estimated
Wed 11:45:00 PM 35.1675 117.3736 176° South  Level Estimated
Wed 11:46:00 PM 35.0835 117.3813 176° South  Level Estimated
Wed 11:47:00 PM 34.9995 117.3889 176° South  Level Estimated
Wed 11:48:00 PM 34.9155 117.3966 176° South  Level Estimated
Wed 11:49:00 PM 34.8315 117.4042 176° South  Level Estimated
Wed 11:50:00 PM 34.7475 117.4118 176° South  Level Estimated
Wed 11:51:00 PM 34.6636 117.4194 176° South  Level Estimated
Wed 11:52:00 PM 34.5796 117.4269 176° South  Level Estimated
Wed 11:53:00 PM 34.4955 117.4345 176° South  Level Estimated
Wed 11:54:00 PM 34.4115 117.4420 176° South  Level Estimated
Wed 11:55:00 PM 34.3275 117.4496 176° South  Level Estimated
Wed 11:56:00 PM 34.2435 117.4571 176° South  Level Estimated
Wed 11:57:00 PM 34.1595 117.4646 176° South  Level Estimated
Wed 11:58:00 PM 34.0756 117.4721 176° South  Level Estimated
Wed 11:59:00 PM 33.9916 117.4795 176° South  Level Estimated
Thu 12:00:00 AM 33.9076 117.4870 176° South  Level Estimated
Thu 12:01:00 AM 33.8236 117.4944 176° South  Level Estimated
Thu 12:02:00 AM 33.7396 117.5018 176° South  Level Estimated
Thu 12:03:00 AM 33.6555 117.5092 176° South  Level Estimated
Thu 12:04:00 AM 33.5715 117.5166 176° South  Level Estimated
Thu 12:05:00 AM 33.4875 117.5240 176° South  Level Estimated
Thu 12:06:00 AM 33.4035 117.5314 176° South  Level Estimated
Thu 12:07:00 AM 33.3195 117.5387 176° South  Level Estimated
Thu 12:08:00 AM 33.2355 117.5461 176° South  Level Estimated
Thu 12:09:00 AM 33.1516 117.5534 176° South  Level Estimated
Thu 12:10:00 AM 33.0676 117.5607 176° South  Level Estimated
Thu 12:11:00 AM 32.9836 117.5680 176° South  Level Estimated
Thu 12:12:00 AM 32.8996 117.5753 176° South  Level Estimated
Thu 12:13:00 AM 32.8156 117.5825 176° South  Level Estimated
Thu 12:14:00 AM 32.7315 117.5898 176° South  Level Estimated
Thu 12:15:00 AM 32.6475 117.5970 176° South  Level Estimated
Thu 12:16:00 AM 32.5635 117.6043 176° South  Level Estimated
Thu 12:17:00 AM 32.4795 117.6115 176° South  Level Estimated
Thu 12:18:00 AM 32.3955 117.6187 176° South  Level Estimated
Thu 12:19:00 AM 32.3115 117.6258 176° South  Level Estimated
Thu 12:20:00 AM 32.2275 117.6330 176° South  Level Estimated
Thu 12:21:00 AM 32.1435 117.6402 176° South  Level Estimated
Thu 12:22:00 AM 32.0595 117.6473 176° South  Level Estimated
Thu 12:23:00 AM 31.9755 117.6545 176° South  Level Estimated
Thu 12:24:00 AM 31.8915 117.6616 176° South  Level Estimated
Thu 12:25:00 AM 31.8074 117.6687 176° South  Level Estimated
Thu 12:26:00 AM 31.7234 117.6758 176° South  Level Estimated
Thu 12:27:00 AM 31.6394 117.6829 176° South  Level Estimated
Thu 12:28:00 AM 31.5554 117.6899 176° South  Level Estimated
Thu 12:29:00 AM 31.4714 117.6970 176° South  Level Estimated
Thu 12:30:00 AM 31.3874 117.7040 176° South  Level Estimated
Thu 12:31:00 AM 31.3034 117.7111 176° South  Level Estimated
Thu 12:32:00 AM 31.2194 117.7181 176° South  Level Estimated
Thu 12:33:00 AM 31.1354 117.7251 176° South  Level Estimated
Thu 12:34:00 AM 31.0513 117.7321 176° South  Level Estimated
Thu 12:35:00 AM 30.9673 117.7390 176° South  Level Estimated
Thu 12:36:00 AM 30.8833 117.7460 176° South  Level Estimated
Thu 12:37:00 AM 30.7993 117.7530 176° South  Level Estimated
Thu 12:38:00 AM 30.7153 117.7599 176° South  Level Estimated
Thu 12:39:00 AM 30.6313 117.7668 176° South  Level Estimated
Thu 12:40:00 AM 30.5473 117.7738 176° South  Level Estimated
Thu 12:41:00 AM 30.4633 117.7807 176° South  Level Estimated
Thu 12:42:00 AM 30.3792 117.7876 176° South  Level Estimated
Thu 12:43:00 AM 30.2952 117.7944 176° South  Level Estimated
Thu 12:44:00 AM 30.2112 117.8013 176° South  Level Estimated
Thu 12:45:00 AM 30.1272 117.8082 176° South  Level Estimated
Thu 12:46:00 AM 30.0432 117.8150 176° South  Level Estimated
Thu 12:47:00 AM 29.9591 117.8219 176° South  Level Estimated
Thu 12:48:00 AM 29.8751 117.8287 176° South  Level Estimated
Thu 12:49:00 AM 29.7911 117.8355 176° South  Level Estimated
Thu 12:50:00 AM 29.7071 117.8423 176° South  Level Estimated
Thu 12:51:00 AM 29.6231 117.8491 176° South  Level Estimated
Thu 12:52:00 AM 29.5390 117.8559 176° South  Level Estimated
Thu 12:53:00 AM 29.4550 117.8626 176° South  Level Estimated
Thu 12:54:00 AM 29.3710 117.8694 176° South  Level Estimated
Thu 12:55:00 AM 29.2870 117.8762 176° South  Level Estimated
Thu 12:56:00 AM 29.2030 117.8829 176° South  Level Estimated
Thu 12:57:00 AM 29.1189 117.8896 176° South  Level Estimated
Thu 12:58:00 AM 29.0349 117.8963 176° South  Level Estimated
Thu 12:59:00 AM 28.9509 117.9030 176° South  Level Estimated
Thu 01:00:00 AM 28.8669 117.9097 176° South  Level Estimated
Thu 01:01:00 AM 28.7829 117.9164 176° South  Level Estimated
Thu 01:02:00 AM 28.6988 117.9230 176° South  Level Estimated
Thu 01:03:00 AM 28.6148 117.9297 176° South  Level Estimated
Thu 01:04:00 AM 28.5308 117.9364 176° South  Level Estimated
Thu 01:05:00 AM 28.4468 117.9430 176° South  Level Estimated
Thu 01:06:00 AM 28.3628 117.9496 176° South  Level Estimated
Thu 01:07:00 AM 28.2787 117.9563 176° South  Level Estimated
Thu 01:08:00 AM 28.1947 117.9629 176° South  Level Estimated
Thu 01:09:00 AM 28.1107 117.9695 176° South  Level Estimated
Thu 01:10:00 AM 28.0267 117.9760 176° South  Level Estimated
Thu 01:11:00 AM 27.9426 117.9826 176° South  Level Estimated
Thu 01:12:00 AM 27.8586 117.9892 176° South  Level Estimated
Thu 01:13:00 AM 27.7746 117.9957 176° South  Level Estimated
Thu 01:14:00 AM 27.7019 118.0014 176° South  Level Estimated
Thu 01:15:00 AM 27.7019 118.0014 348° North  Level Estimated
Thu 01:16:00 AM 27.7019 118.0014 348° North  Level Estimated
Thu 01:17:00 AM 27.7019 118.0014 348° North  Level Estimated
Thu 01:18:00 AM 27.7019 118.0014 348° North  Level Estimated
Thu 01:19:00 AM 27.7019 118.0014 348° North  Level Estimated
Thu 01:20:00 AM 27.7019 118.0014 348° North  Level Estimated
Thu 01:21:00 AM 27.7019 118.0014 348° North  Level Estimated
Thu 01:22:00 AM 27.7019 118.0014 348° North  Level Estimated
Thu 01:23:00 AM 27.7019 118.0014 348° North  Level Estimated
Thu 01:24:00 AM 27.7019 118.0014 348° North  Level Estimated
Thu 01:25:00 AM 27.7019 118.0014 348° North  Level Estimated
Thu 01:26:00 AM 27.7019 118.0014 348° North  Level Estimated
Thu 01:27:00 AM 27.7019 118.0014 348° North  Level Estimated
Thu 01:28:00 AM 27.7019 118.0014 348° North  Level Estimated
Thu 01:29:00 AM 27.7019 118.0014 348° North  Level Estimated
Thu 01:30:00 AM 27.7019 118.0014 348° North  Level Estimated
Thu 01:31:00 AM 27.7019 118.0014 348° North  Level Estimated

Login

Don't have an account? Register now (free) for customized features, flight alerts, and more!